Time;durP1;ratioP1;P1;durP2;ratioP2;P2;SDS_P1;SDS_P2;PMS_P1;PMS_P2;Temp;Humidity;BMP_temperature;BMP_pressure;BME280_temperature;BME280_humidity;BME280_pressure;Samples;Min_cycle;Max_cycle;Signal;HPM_P1;HPM_P2
2021/10/25 00:02:04;;;;;;;;;;;;;;;10.54;52.80;101440.97;4922954;28;114262;-58
2021/10/25 00:04:30;;;;;;;;;;;;;;;10.53;52.54;101440.16;4943008;28;117345;-61
2021/10/25 00:06:56;;;;;;;;;;;;;;;10.52;52.69;101448.47;4941555;28;121739;-58
2021/10/25 00:09:22;;;;;;;;;;;;;;;10.51;52.48;101438.75;4941927;28;112966;-61
2021/10/25 00:11:48;;;;;;;;;;;;;;;10.50;52.84;101447.91;4941975;28;126882;-61
2021/10/25 00:14:14;;;;;;;;;;;;;;;10.48;52.85;101441.94;4942022;28;124107;-61
2021/10/25 00:16:44;;;;;;;;;;;;;;;10.46;52.06;101434.09;4941834;28;126634;-61
2021/10/25 00:19:11;;;;;;;;;;;;;;;10.45;52.87;101435.16;4942199;28;97982;-58
2021/10/25 00:21:37;;;;;;;;;;;;;;;10.44;52.88;101436.19;4941748;28;123482;-58
2021/10/25 00:24:03;;;;;;;;;;;;;;;10.43;52.51;101431.88;4941625;28;99150;-60
2021/10/25 00:26:29;;;;;;;;;;;;;;;10.43;52.76;101442.66;4940890;28;119866;-58
2021/10/25 00:28:55;;;;;;;;;;;;;;;10.41;53.09;101439.38;4942312;28;97974;-58
2021/10/25 00:31:21;;;;;;;;;;;;;;;10.40;52.49;101434.25;4951265;28;127894;-58
2021/10/25 00:33:47;;;;;;;;;;;;;;;10.40;52.88;101439.63;4961660;28;97880;-58
2021/10/25 00:36:13;;;;;;;;;;;;;;;10.38;52.99;101433.69;4962230;28;97868;-60
2021/10/25 00:38:39;;;;;;;;;;;;;;;10.36;53.05;101425.81;4956118;28;97858;-57
2021/10/25 00:41:05;;;;;;;;;;;;;;;10.36;52.67;101425.00;4941150;28;128059;-57
2021/10/25 00:43:32;;;;;;;;;;;;;;;10.35;53.12;101432.28;4942082;28;97973;-57
2021/10/25 00:45:58;;;;;;;;;;;;;;;10.34;52.93;101435.22;4954947;28;98797;-60
2021/10/25 00:48:24;;;;;;;;;;;;;;;10.32;53.26;101432.75;4948117;28;97904;-63
2021/10/25 00:50:50;;;;;;;;;;;;;;;10.32;52.99;101427.38;4941120;28;128377;-60
2021/10/25 00:53:16;;;;;;;;;;;;;;;10.30;52.95;101429.50;4950648;28;122417;-57
2021/10/25 00:55:41;;;;;;;;;;;;;;;10.29;52.91;101428.66;4923394;28;125788;-58
2021/10/25 00:58:08;;;;;;;;;;;;;;;10.28;53.43;101429.72;4941296;28;118335;-57
2021/10/25 01:00:35;;;;;;;;;;;;;;;10.28;52.68;101427.03;4938820;28;98937;-58
2021/10/25 01:03:01;;;;;;;;;;;;;;;10.26;52.24;101421.06;4943742;28;98876;-59
2021/10/25 01:05:28;;;;;;;;;;;;;;;10.25;52.97;101421.31;4941179;28;98325;-61
2021/10/25 01:07:57;;;;;;;;;;;;;;;10.25;52.56;101421.31;4942363;28;98018;-61
2021/10/25 01:10:24;;;;;;;;;;;;;;;10.24;53.12;101414.25;4942079;28;98634;-60
2021/10/25 01:12:51;;;;;;;;;;;;;;;10.22;52.66;101419.09;4943449;28;98571;-60
2021/10/25 01:15:17;;;;;;;;;;;;;;;10.20;52.83;101419.31;4941843;28;98001;-57
2021/10/25 01:17:43;;;;;;;;;;;;;;;10.19;53.03;101422.25;4960842;28;97958;-57
2021/10/25 01:20:09;;;;;;;;;;;;;;;10.18;52.37;101421.44;4960488;28;124919;-58
2021/10/25 01:22:37;;;;;;;;;;;;;;;10.17;53.29;101421.66;4950800;28;118835;-60
2021/10/25 01:25:03;;;;;;;;;;;;;;;10.15;52.59;101419.22;4951752;28;98389;-61
2021/10/25 01:27:29;;;;;;;;;;;;;;;10.14;53.34;101409.50;4959697;28;112175;-61
2021/10/25 01:29:55;;;;;;;;;;;;;;;10.13;52.73;101415.94;4949346;28;127772;-60
2021/10/25 01:32:21;;;;;;;;;;;;;;;10.11;52.86;101407.28;4944897;28;129774;-58
2021/10/25 01:34:47;;;;;;;;;;;;;;;10.11;52.29;101419.94;4960016;28;97983;-61
2021/10/25 01:37:13;;;;;;;;;;;;;;;10.09;53.02;101418.28;4961299;28;98178;-61
2021/10/25 01:39:39;;;;;;;;;;;;;;;10.08;53.34;101422.06;4945962;28;120891;-57
2021/10/25 01:42:05;;;;;;;;;;;;;;;10.09;52.48;101409.41;4951950;28;128772;-58
2021/10/25 01:44:31;;;;;;;;;;;;;;;10.07;53.21;101409.66;4960981;28;98068;-58
2021/10/25 01:46:57;;;;;;;;;;;;;;;10.05;52.50;101395.59;4961323;28;97827;-61
2021/10/25 01:49:24;;;;;;;;;;;;;;;10.04;52.96;101393.16;4947210;28;129459;-57
2021/10/25 01:51:50;;;;;;;;;;;;;;;10.03;52.64;101397.72;4922936;28;98880;-61
2021/10/25 01:54:16;;;;;;;;;;;;;;;10.02;52.50;101403.31;4946455;28;126448;-58
2021/10/25 01:56:42;;;;;;;;;;;;;;;10.00;52.42;101403.59;4941930;28;113517;-58
2021/10/25 01:59:09;;;;;;;;;;;;;;;10.00;53.15;101403.59;4937251;28;98711;-58
2021/10/25 02:01:34;;;;;;;;;;;;;;;9.99;52.93;101401.13;4961222;28;98388;-60
2021/10/25 02:04:02;;;;;;;;;;;;;;;9.98;53.11;101392.25;4959574;28;119161;-60
2021/10/25 02:06:28;;;;;;;;;;;;;;;9.97;53.08;101384.38;4961313;28;109748;-58
2021/10/25 02:08:54;;;;;;;;;;;;;;;9.96;52.53;101393.53;4959369;28;125815;-60
2021/10/25 02:11:20;;;;;;;;;;;;;;;9.94;52.26;101391.09;4950892;28;128504;-61
2021/10/25 02:13:46;;;;;;;;;;;;;;;9.93;52.60;101392.13;4956351;28;110765;-58
2021/10/25 02:16:13;;;;;;;;;;;;;;;9.91;52.77;101388.88;4962056;28;97751;-57
2021/10/25 02:18:39;;;;;;;;;;;;;;;9.91;52.59;101383.50;4941854;28;97848;-58
2021/10/25 02:21:05;;;;;;;;;;;;;;;9.90;53.19;101381.00;4945063;28;127236;-57
2021/10/25 02:23:32;;;;;;;;;;;;;;;9.86;52.62;101380.69;4947658;28;98696;-60
2021/10/25 02:25:57;;;;;;;;;;;;;;;9.87;52.85;101378.81;4941109;28;97741;-58
2021/10/25 02:28:24;;;;;;;;;;;;;;;9.86;53.04;101377.97;4940330;28;122362;-60
2021/10/25 02:30:50;;;;;;;;;;;;;;;9.84;52.45;101374.72;4940595;28;98897;-57
2021/10/25 02:33:17;;;;;;;;;;;;;;;9.82;52.60;101374.13;4940607;28;98115;-57
2021/10/25 02:35:43;;;;;;;;;;;;;;;9.82;52.30;101374.97;4941127;28;97668;-57
2021/10/25 02:38:09;;;;;;;;;;;;;;;9.80;52.42;101366.31;4938082;28;128780;-61
2021/10/25 02:40:35;;;;;;;;;;;;;;;9.80;52.24;101368.19;4939924;28;126154;-61
2021/10/25 02:43:01;;;;;;;;;;;;;;;9.79;52.67;101364.69;4939865;28;103636;-61
2021/10/25 02:45:27;;;;;;;;;;;;;;;9.77;52.98;101360.59;4941720;28;98242;-58
2021/10/25 02:47:53;;;;;;;;;;;;;;;9.77;52.49;101360.59;4942606;28;120766;-58
2021/10/25 02:50:19;;;;;;;;;;;;;;;9.75;52.51;101357.34;4943261;28;129335;-57
2021/10/25 02:52:45;;;;;;;;;;;;;;;9.75;53.02;101354.63;4943266;28;127875;-58
2021/10/25 02:55:11;;;;;;;;;;;;;;;9.73;52.95;101356.75;4942895;28;116347;-60
2021/10/25 02:57:37;;;;;;;;;;;;;;;9.72;52.72;101352.41;4942094;28;127830;-60
2021/10/25 03:00:08;;;;;;;;;;;;;;;9.71;52.63;101357.00;4942145;28;128310;-60
2021/10/25 03:02:34;;;;;;;;;;;;;;;9.69;52.82;101359.09;4943351;28;98506;-60
2021/10/25 03:04:59;;;;;;;;;;;;;;;9.68;52.91;101360.16;4942583;28;119142;-61
2021/10/25 03:07:26;;;;;;;;;;;;;;;9.68;52.46;101362.03;4942598;28;127868;-61
2021/10/25 03:09:52;;;;;;;;;;;;;;;9.67;52.68;101371.16;4943460;28;99007;-60
2021/10/25 03:12:18;;;;;;;;;;;;;;;9.64;52.93;101358.19;4942866;28;99361;-61
2021/10/25 03:14:44;;;;;;;;;;;;;;;9.64;52.52;101358.19;4924611;28;116130;-58
2021/10/25 03:17:10;;;;;;;;;;;;;;;9.64;52.70;101356.31;4942375;28;100699;-58
2021/10/25 03:19:37;;;;;;;;;;;;;;;9.62;52.44;101346.81;4942004;28;109215;-60
2021/10/25 03:22:05;;;;;;;;;;;;;;;9.60;52.65;101352.47;4924629;28;97959;-61
2021/10/25 03:24:31;;;;;;;;;;;;;;;9.61;53.12;101361.34;4944605;28;98000;-60
2021/10/25 03:26:57;;;;;;;;;;;;;;;9.58;52.18;101357.25;4925251;28;98006;-61
2021/10/25 03:29:23;;;;;;;;;;;;;;;9.57;52.36;101358.31;4924221;28;127238;-57
2021/10/25 03:31:51;;;;;;;;;;;;;;;9.57;52.72;101359.13;4924244;28;126616;-57
2021/10/25 03:34:17;;;;;;;;;;;;;;;9.56;52.56;101360.19;4948195;28;97991;-58
2021/10/25 03:36:45;;;;;;;;;;;;;;;9.55;52.49;101353.19;4955934;28;125097;-61
2021/10/25 03:39:11;;;;;;;;;;;;;;;9.54;52.52;101356.91;4942577;28;99617;-58
2021/10/25 03:41:41;;;;;;;;;;;;;;;9.52;53.03;101353.66;4942526;28;98035;-61
2021/10/25 03:44:14;;;;;;;;;;;;;;;9.52;52.53;101353.66;4953044;28;98022;-60
2021/10/25 03:46:44;;;;;;;;;;;;;;;9.51;53.11;101352.03;4958253;28;98546;-57
2021/10/25 03:51:43;;;;;;;;;;;;;;;9.49;52.54;101350.63;4961493;28;97952;-58
2021/10/25 03:57:07;;;;;;;;;;;;;;;9.46;52.44;101349.22;4962684;28;98278;-57
2021/10/25 04:29:27;;;;;;;;;;;;;;;9.33;52.79;101331.47;4952121;28;98507;-61
2021/10/25 04:31:53;;;;;;;;;;;;;;;9.33;52.57;101326.09;4935953;28;98547;-61
2021/10/25 04:34:19;;;;;;;;;;;;;;;9.32;52.86;101331.72;4958635;28;124967;-58
2021/10/25 04:36:45;;;;;;;;;;;;;;;9.31;52.35;101328.22;4956759;28;117107;-60
2021/10/25 04:39:13;;;;;;;;;;;;;;;9.28;52.72;101317.91;4954918;28;98549;-59
2021/10/25 04:41:39;;;;;;;;;;;;;;;9.30;52.47;101328.44;4955964;28;98757;-59
2021/10/25 04:44:05;;;;;;;;;;;;;;;9.30;53.14;101325.75;4957271;28;121428;-57
2021/10/25 04:46:31;;;;;;;;;;;;;;;9.27;52.92;101315.44;4956447;28;97755;-61
2021/10/25 04:48:57;;;;;;;;;;;;;;;9.27;52.77;101320.81;4952601;28;108065;-57
2021/10/25 04:51:23;;;;;;;;;;;;;;;9.26;52.41;101322.69;4954977;28;125357;-61
2021/10/25 04:53:49;;;;;;;;;;;;;;;9.26;52.91;101319.19;4938739;28;128444;-58
2021/10/25 04:56:15;;;;;;;;;;;;;;;9.24;52.68;101319.44;4939298;28;118571;-61
2021/10/25 04:58:41;;;;;;;;;;;;;;;9.24;52.47;101319.44;4952956;28;129061;-58
2021/10/25 05:01:06;;;;;;;;;;;;;;;9.24;52.71;101324.84;4959252;28;99303;-58
2021/10/25 05:03:35;;;;;;;;;;;;;;;9.24;52.51;101327.53;4950698;28;127464;-60
2021/10/25 05:06:03;;;;;;;;;;;;;;;9.24;53.27;101330.22;4942835;28;97778;-60
2021/10/25 05:08:29;;;;;;;;;;;;;;;9.24;52.80;101329.41;4941715;28;98167;-61
2021/10/25 05:10:55;;;;;;;;;;;;;;;9.22;53.06;101321.53;4922545;28;98773;-61
2021/10/25 05:13:21;;;;;;;;;;;;;;;9.25;52.50;101317.56;4941917;28;103941;-61
2021/10/25 05:15:47;;;;;;;;;;;;;;;9.25;52.53;101317.56;4940537;28;117447;-58
2021/10/25 05:18:13;;;;;;;;;;;;;;;9.24;52.44;101311.38;4941424;28;129180;-57
2021/10/25 05:20:40;;;;;;;;;;;;;;;9.25;53.02;101310.31;4942133;28;98956;-58
2021/10/25 05:23:07;;;;;;;;;;;;;;;9.25;52.92;101306.81;4940904;28;98524;-57
2021/10/25 05:25:33;;;;;;;;;;;;;;;9.23;52.95;101301.66;4941448;28;107981;-57
2021/10/25 05:27:59;;;;;;;;;;;;;;;9.24;52.96;101313.25;4950526;28;98907;-58
2021/10/25 05:30:25;;;;;;;;;;;;;;;9.24;52.46;101314.06;4939797;28;117711;-61
2021/10/25 05:32:51;;;;;;;;;;;;;;;9.25;52.58;101309.50;4919371;28;126640;-60
2021/10/25 05:35:17;;;;;;;;;;;;;;;9.26;52.75;101317.31;4937521;28;118388;-60
2021/10/25 05:37:43;;;;;;;;;;;;;;;9.25;52.79;101307.63;4938362;28;109870;-61
2021/10/25 05:40:10;;;;;;;;;;;;;;;9.27;53.08;101296.63;4937724;28;98800;-57
2021/10/25 05:42:36;;;;;;;;;;;;;;;9.28;52.91;101300.97;4938261;28;98267;-57
2021/10/25 05:45:04;;;;;;;;;;;;;;;9.30;52.81;101296.97;4937320;28;98080;-60
2021/10/25 05:47:30;;;;;;;;;;;;;;;9.32;53.35;101302.13;4930492;28;99054;-57
2021/10/25 05:49:56;;;;;;;;;;;;;;;9.33;53.09;101299.19;4937582;28;128749;-60
2021/10/25 05:52:22;;;;;;;;;;;;;;;9.37;53.14;101309.47;4937110;28;126940;-57
2021/10/25 05:54:49;;;;;;;;;;;;;;;9.39;53.46;101302.78;4938346;28;97757;-61
2021/10/25 05:57:16;;;;;;;;;;;;;;;9.43;52.81;101309.34;4919157;28;99055;-61
2021/10/25 05:59:42;;;;;;;;;;;;;;;9.46;53.06;101311.53;4937528;28;99072;-61
2021/10/25 06:02:14;;;;;;;;;;;;;;;9.49;53.26;101310.25;4937087;28;98050;-58
2021/10/25 06:04:40;;;;;;;;;;;;;;;9.52;53.37;101315.97;4938453;28;98061;-57
2021/10/25 06:07:06;;;;;;;;;;;;;;;9.55;53.67;101312.81;4936775;28;98074;-58
2021/10/25 06:09:36;;;;;;;;;;;;;;;9.58;53.42;101315.00;4937132;28;105242;-58
2021/10/25 06:12:06;;;;;;;;;;;;;;;9.62;53.26;101314.53;4933448;28;98454;-57
2021/10/25 06:14:37;;;;;;;;;;;;;;;9.65;53.24;101314.84;4938054;28;98018;-62
2021/10/25 06:17:13;;;;;;;;;;;;;;;9.69;53.52;101317.88;4938002;28;98878;-62
2021/10/25 06:19:39;;;;;;;;;;;;;;;9.74;53.55;101309.91;4937968;28;98616;-58
2021/10/25 06:22:05;;;;;;;;;;;;;;;9.80;53.54;101311.63;4938174;28;97837;-58
2021/10/25 06:24:31;;;;;;;;;;;;;;;9.84;53.38;101310.09;4922893;28;97890;-60
2021/10/25 06:26:57;;;;;;;;;;;;;;;9.91;53.84;101307.25;4939099;28;128669;-58
2021/10/25 06:29:23;;;;;;;;;;;;;;;9.95;53.90;101306.53;4939505;28;128263;-57
2021/10/25 06:31:49;;;;;;;;;;;;;;;10.00;53.28;101311.19;4938644;28;100033;-57
2021/10/25 06:34:21;;;;;;;;;;;;;;;10.05;53.61;101303.19;4955108;28;97924;-60
2021/10/25 06:36:52;;;;;;;;;;;;;;;10.08;53.58;101303.50;4953440;28;98670;-61
2021/10/25 06:42:16;;;;;;;;;;;;;;;10.19;53.45;101307.22;4918886;28;98674;-61
2021/10/25 06:47:14;;;;;;;;;;;;;;;10.29;53.91;101310.06;4952951;28;98045;-58
2021/10/25 06:49:40;;;;;;;;;;;;;;;10.34;53.49;101308.56;4937975;28;98325;-57
2021/10/25 06:52:06;;;;;;;;;;;;;;;10.40;53.30;101304.88;4954724;28;127928;-57
2021/10/25 06:54:32;;;;;;;;;;;;;;;10.45;53.49;101300.38;4933936;28;97815;-58
2021/10/25 06:56:58;;;;;;;;;;;;;;;10.57;53.45;101305.66;4936238;28;128251;-60
2021/10/25 06:59:24;;;;;;;;;;;;;;;10.66;53.25;101298.81;4948199;28;104246;-57
2021/10/25 07:01:50;;;;;;;;;;;;;;;10.72;53.59;101305.06;4959060;28;127641;-60
2021/10/25 07:04:16;;;;;;;;;;;;;;;10.78;53.23;101304.91;4950847;28;117037;-58
2021/10/25 07:06:42;;;;;;;;;;;;;;;10.86;53.25;101316.34;4933792;28;98706;-62
2021/10/25 07:09:09;;;;;;;;;;;;;;;10.89;53.45;101313.97;4953665;28;127230;-58
2021/10/25 07:11:35;;;;;;;;;;;;;;;10.93;53.65;101317.78;4947544;28;99037;-57
2021/10/25 07:14:01;;;;;;;;;;;;;;;11.00;52.82;101314.91;4952927;28;98136;-61
2021/10/25 07:16:40;;;;;;;;;;;;;;;11.07;53.37;101310.13;4960189;28;98327;-60
2021/10/25 08:09:56;;;;;;;;;;;;;;;18.27;45.37;101295.38;4917649;28;98700;-60
2021/10/25 08:12:25;;;;;;;;;;;;;;;19.64;43.79;101291.91;4938383;28;97974;-62
2021/10/25 08:14:56;;;;;;;;;;;;;;;20.80;42.54;101308.47;4940007;28;98167;-61
2021/10/25 08:17:25;;;;;;;;;;;;;;;21.40;42.31;101301.59;4941502;28;97914;-63
2021/10/25 08:19:52;;;;;;;;;;;;;;;21.87;42.16;101307.25;4937262;28;99103;-60
2021/10/25 08:22:18;;;;;;;;;;;;;;;21.27;43.35;101306.84;4934637;28;98840;-61
2021/10/25 08:24:47;;;;;;;;;;;;;;;21.03;43.87;101306.47;4933849;28;98063;-58
2021/10/25 08:27:14;;;;;;;;;;;;;;;20.92;44.13;101303.19;4923259;28;97950;-60
2021/10/25 08:29:41;;;;;;;;;;;;;;;20.94;44.14;101298.19;4922434;28;99146;-61
2021/10/25 08:35:06;;;;;;;;;;;;;;;23.13;40.79;101281.25;4954474;28;97926;-59
2021/10/25 08:40:17;;;;;;;;;;;;;;;24.40;40.07;101289.91;4959285;28;97893;-59
2021/10/25 08:42:43;;;;;;;;;;;;;;;25.13;39.91;101289.19;4959820;28;98333;-62
2021/10/25 08:45:13;;;;;;;;;;;;;;;25.10;40.34;101284.34;4960932;28;98107;-75
2021/10/25 08:47:43;;;;;;;;;;;;;;;24.66;40.97;101284.09;4945095;28;97934;-75
2021/10/25 08:50:16;;;;;;;;;;;;;;;25.81;39.51;101280.19;4925474;28;98348;-69
2021/10/25 08:52:42;;;;;;;;;;;;;;;26.34;39.06;101288.34;4923862;28;99560;-69
2021/10/25 08:55:12;;;;;;;;;;;;;;;26.88;38.63;101282.19;4951460;28;98220;-69
2021/10/25 08:57:40;;;;;;;;;;;;;;;27.21;38.83;101284.59;4939482;28;97918;-74
2021/10/25 09:00:07;;;;;;;;;;;;;;;27.38;39.06;101284.19;4961004;28;98247;-69
2021/10/25 09:02:33;;;;;;;;;;;;;;;27.30;39.66;101287.16;4961972;28;98744;-64
2021/10/25 09:05:08;;;;;;;;;;;;;;;27.21;39.47;101290.13;4948754;28;97991;-68
2021/10/25 09:07:48;;;;;;;;;;;;;;;27.44;39.34;101273.63;4961194;28;98278;-69
2021/10/25 09:10:23;;;;;;;;;;;;;;;27.39;39.45;101268.38;4952196;28;98642;-72
2021/10/25 09:13:16;;;;;;;;;;;;;;;27.30;39.63;101265.03;4929470;28;98667;-65
2021/10/25 09:15:43;;;;;;;;;;;;;;;27.44;39.46;101259.81;4941550;28;98485;-57
2021/10/25 09:18:14;;;;;;;;;;;;;;;27.63;38.98;101262.59;4942324;28;105763;-65
2021/10/25 09:20:43;;;;;;;;;;;;;;;27.83;38.73;101251.53;4940906;28;98460;-62
2021/10/25 09:23:09;;;;;;;;;;;;;;;28.06;38.65;101243.22;4941195;28;99153;-62
2021/10/25 09:25:36;;;;;;;;;;;;;;;28.28;37.91;101239.69;4942136;28;97963;-62
2021/10/25 09:28:15;;;;;;;;;;;;;;;28.61;37.65;101249.34;4941656;28;97988;-62
2021/10/25 09:30:49;;;;;;;;;;;;;;;28.60;37.71;101244.97;4941937;28;98112;-62
2021/10/25 09:33:21;;;;;;;;;;;;;;;28.51;37.54;101247.22;4940987;28;113292;-62
2021/10/25 09:35:53;;;;;;;;;;;;;;;29.17;36.29;101247.84;4941082;28;98625;-75
2021/10/25 09:38:47;;;;;;;;;;;;;;;30.09;34.93;101253.72;4942180;28;97835;-63
2021/10/25 09:51:28;;;;;;;;;;;;;;;33.60;29.67;101236.88;4939135;28;119372;-63
2021/10/25 09:53:59;;;;;;;;;;;;;;;34.15;29.72;101236.16;4944175;28;126434;-60
2021/10/25 09:56:30;;;;;;;;;;;;;;;34.34;29.44;101234.00;4940356;28;98541;-71
2021/10/25 09:59:07;;;;;;;;;;;;;;;34.30;29.76;101234.03;4941251;28;97718;-60
2021/10/25 10:01:35;;;;;;;;;;;;;;;34.19;30.17;101225.75;4935145;28;98488;-74
2021/10/25 10:04:00;;;;;;;;;;;;;;;34.11;29.93;101226.19;4922910;28;98820;-63
2021/10/25 10:06:26;;;;;;;;;;;;;;;34.78;29.59;101221.22;4940218;28;128143;-63
2021/10/25 10:08:52;;;;;;;;;;;;;;;35.45;28.71;101219.69;4921913;28;117406;-63
2021/10/25 10:11:20;;;;;;;;;;;;;;;35.71;28.59;101214.53;4940428;28;127786;-64
2021/10/25 10:13:46;;;;;;;;;;;;;;;35.75;28.54;101206.84;4940485;28;98899;-74
2021/10/25 10:16:12;;;;;;;;;;;;;;;36.81;27.30;101215.53;4940562;28;98060;-73
2021/10/25 10:18:44;;;;;;;;;;;;;;;36.47;27.67;101206.53;4940482;28;97939;-73
2021/10/25 10:21:11;;;;;;;;;;;;;;;35.16;29.10;101206.00;4922316;28;97792;-75
2021/10/25 10:23:37;;;;;;;;;;;;;;;33.07;30.68;101195.19;4918853;28;117422;-74
2021/10/25 10:26:04;;;;;;;;;;;;;;;32.94;30.16;101195.63;4920193;28;98438;-74
2021/10/25 10:28:42;;;;;;;;;;;;;;;32.73;30.34;101198.44;4938356;28;110274;-73
2021/10/25 10:31:09;;;;;;;;;;;;;;;33.65;29.08;101191.75;4944673;28;99223;-74
2021/10/25 10:33:39;;;;;;;;;;;;;;;34.61;27.59;101201.41;4951143;28;104178;-74
2021/10/25 10:36:47;;;;;;;;;;;;;;;35.09;27.35;101189.28;4954483;28;98171;-63
2021/10/25 10:39:16;;;;;;;;;;;;;;;35.31;27.43;101189.81;4927030;28;98444;-74
2021/10/25 10:41:42;;;;;;;;;;;;;;;34.91;27.75;101191.50;4956786;28;99372;-63
2021/10/25 10:44:10;;;;;;;;;;;;;;;34.72;27.95;101186.50;4955770;28;98330;-63
2021/10/25 10:47:02;;;;;;;;;;;;;;;34.16;28.88;101176.22;4953928;28;98460;-73
2021/10/25 10:49:57;;;;;;;;;;;;;;;33.51;29.30;101183.44;4931520;28;97836;-73
2021/10/25 10:52:37;;;;;;;;;;;;;;;32.12;31.28;101172.56;4945653;28;98615;-62
2021/10/25 10:55:19;;;;;;;;;;;;;;;31.09;32.05;101168.31;4942228;28;98527;-62
2021/10/25 11:00:37;;;;;;;;;;;;;;;29.16;33.24;101174.91;4955560;28;98178;-73
2021/10/25 11:03:20;;;;;;;;;;;;;;;28.66;33.79;101165.88;4948820;28;99000;-62
2021/10/25 11:06:10;;;;;;;;;;;;;;;27.98;34.16;101162.00;4931254;28;98873;-73
2021/10/25 11:08:40;;;;;;;;;;;;;;;27.82;34.05;101167.63;4950812;28;98025;-72
2021/10/25 11:11:07;;;;;;;;;;;;;;;27.61;34.31;101165.22;4960193;28;97858;-62
2021/10/25 11:13:40;;;;;;;;;;;;;;;27.42;34.56;101163.28;4955356;28;98882;-62
2021/10/25 11:18:53;;;;;;;;;;;;;;;26.63;35.19;101165.50;4958662;28;98092;-62
2021/10/25 11:21:23;;;;;;;;;;;;;;;26.23;35.74;101160.19;4953063;28;97907;-62
2021/10/25 11:23:55;;;;;;;;;;;;;;;25.78;36.04;101159.44;4951702;28;99287;-72
2021/10/25 11:26:23;;;;;;;;;;;;;;;25.36;36.26;101162.59;4956005;28;98446;-62
2021/10/25 11:29:07;;;;;;;;;;;;;;;24.89;36.54;101156.84;4952317;28;98601;-62
2021/10/25 11:31:38;;;;;;;;;;;;;;;24.40;36.83;101154.94;4951724;28;98177;-62
2021/10/25 11:34:08;;;;;;;;;;;;;;;24.08;37.06;101155.81;4949802;28;98643;-72
2021/10/25 11:36:35;;;;;;;;;;;;;;;23.99;36.74;101153.16;4959784;28;98947;-72
2021/10/25 11:39:07;;;;;;;;;;;;;;;23.94;36.71;101156.94;4950815;28;98282;-62
2021/10/25 11:41:44;;;;;;;;;;;;;;;23.66;36.82;101156.75;4938773;28;98107;-72
2021/10/25 11:44:14;;;;;;;;;;;;;;;23.39;37.18;101152.63;4949700;28;117518;-72
2021/10/25 11:46:40;;;;;;;;;;;;;;;23.27;37.24;101144.31;4959207;28;99018;-72
2021/10/25 11:49:06;;;;;;;;;;;;;;;23.11;37.55;101140.53;4949804;28;127805;-72
2021/10/25 11:51:32;;;;;;;;;;;;;;;22.94;37.52;101142.28;4933722;28;97924;-62
2021/10/25 11:53:58;;;;;;;;;;;;;;;22.77;37.76;101142.41;4943111;28;98520;-72
2021/10/25 11:56:25;;;;;;;;;;;;;;;22.61;38.08;101130.38;4959512;28;98416;-62
2021/10/25 11:58:52;;;;;;;;;;;;;;;22.43;38.22;101135.16;4937558;28;98347;-62
2021/10/25 12:01:18;;;;;;;;;;;;;;;22.36;38.32;101152.16;4956867;28;98591;-62
2021/10/25 12:03:44;;;;;;;;;;;;;;;22.26;38.61;101144.28;4953480;28;98388;-70
2021/10/25 12:06:21;;;;;;;;;;;;;;;22.13;38.91;101146.13;4957515;28;99569;-71
2021/10/25 12:09:03;;;;;;;;;;;;;;;22.01;39.11;101151.47;4946844;28;98637;-71
2021/10/25 12:14:25;;;;;;;;;;;;;;;21.77;39.74;101133.63;4945197;28;98166;-71
2021/10/25 12:16:51;;;;;;;;;;;;;;;21.72;39.86;101131.03;4942046;28;98587;-70
2021/10/25 12:19:17;;;;;;;;;;;;;;;21.66;39.96;101117.84;4948231;28;98107;-71
2021/10/25 12:21:43;;;;;;;;;;;;;;;21.57;40.21;101115.09;4953498;28;101059;-62
2021/10/25 12:24:09;;;;;;;;;;;;;;;21.49;40.44;101113.16;4960529;28;123396;-62
2021/10/25 12:26:36;;;;;;;;;;;;;;;21.40;40.66;101104.97;4964767;28;98475;-70
2021/10/25 12:29:17;;;;;;;;;;;;;;;21.33;40.86;101096.41;4945446;28;98039;-70
2021/10/25 12:31:45;;;;;;;;;;;;;;;21.27;41.00;101094.97;4945159;28;98053;-62
2021/10/25 12:34:10;;;;;;;;;;;;;;;21.19;41.11;101095.78;4944480;28;98323;-69
2021/10/25 12:36:38;;;;;;;;;;;;;;;21.12;41.30;101096.25;4922725;28;98612;-71
2021/10/25 12:39:13;;;;;;;;;;;;;;;21.07;41.48;101099.97;4944569;28;97829;-70
2021/10/25 12:41:49;;;;;;;;;;;;;;;21.05;41.69;101087.72;4945488;28;98010;-70
2021/10/25 12:44:26;;;;;;;;;;;;;;;21.03;41.80;101093.53;4908969;28;99119;-62
2021/10/25 12:47:04;;;;;;;;;;;;;;;21.03;41.83;101082.56;4944135;28;99128;-62
2021/10/25 12:49:30;;;;;;;;;;;;;;;21.01;42.04;101089.47;4943910;28;98148;-70
2021/10/25 12:52:05;;;;;;;;;;;;;;;20.95;42.24;101083.38;4945755;28;117558;-70
2021/10/25 12:54:35;;;;;;;;;;;;;;;20.91;42.50;101081.59;4963330;28;98137;-71
2021/10/25 12:57:05;;;;;;;;;;;;;;;20.87;42.63;101077.88;4962977;28;98079;-62
2021/10/25 12:59:31;;;;;;;;;;;;;;;20.83;42.76;101070.31;4962536;28;98034;-62
2021/10/25 13:02:01;;;;;;;;;;;;;;;20.80;42.78;101073.69;4963807;28;110467;-62
2021/10/25 13:04:30;;;;;;;;;;;;;;;20.77;42.92;101081.75;4963913;28;97842;-62
2021/10/25 13:06:56;;;;;;;;;;;;;;;20.74;43.12;101079.63;4963018;28;98671;-71
2021/10/25 13:09:22;;;;;;;;;;;;;;;20.70;43.13;101071.25;4931766;28;127160;-70
2021/10/25 13:11:48;;;;;;;;;;;;;;;20.66;43.12;101061.28;4944556;28;98056;-70
2021/10/25 13:14:14;;;;;;;;;;;;;;;20.62;43.28;101072.06;4952951;28;98277;-70
2021/10/25 13:27:05;;;;;;;;;;;;;;;20.13;43.87;101078.69;5711078;22;99007;-59
2021/10/25 13:29:31;;;;;;;;;;;;;;;20.09;43.87;101081.25;4924601;28;98435;-58
2021/10/25 13:31:57;;;;;;;;;;;;;;;20.07;43.76;101073.34;4921195;28;99152;-65
2021/10/25 13:34:23;;;;;;;;;;;;;;;20.08;43.67;101079.63;4934216;28;127990;-65
2021/10/25 13:36:49;;;;;;;;;;;;;;;20.04;43.68;101082.19;4941279;28;99362;-64
2021/10/25 13:39:17;;;;;;;;;;;;;;;20.00;43.75;101085.88;4943333;28;98528;-64
2021/10/25 13:41:43;;;;;;;;;;;;;;;19.95;43.81;101091.47;4944416;28;97681;-58
2021/10/25 13:44:09;;;;;;;;;;;;;;;19.88;43.85;101082.91;4944915;28;98972;-58
2021/10/25 13:46:35;;;;;;;;;;;;;;;19.81;43.88;101081.44;4930628;28;121949;-58
2021/10/25 13:49:03;;;;;;;;;;;;;;;19.76;44.25;101078.03;4935492;28;128620;-58
2021/10/25 13:51:28;;;;;;;;;;;;;;;19.70;44.17;101085.56;4941663;28;97874;-58
2021/10/25 13:53:54;;;;;;;;;;;;;;;19.66;44.26;101081.06;4931930;28;129050;-58
2021/10/25 13:56:20;;;;;;;;;;;;;;;19.61;44.25;101077.34;4934275;28;127035;-64
2021/10/25 13:58:47;;;;;;;;;;;;;;;19.57;44.40;101079.06;4936203;28;97840;-58
2021/10/25 14:01:13;;;;;;;;;;;;;;;19.53;44.36;101074.50;4935947;28;97992;-64
2021/10/25 14:03:40;;;;;;;;;;;;;;;19.48;44.49;101066.44;4934880;28;98303;-64
2021/10/25 14:06:08;;;;;;;;;;;;;;;19.40;44.60;101068.00;4940099;28;98787;-64
2021/10/25 14:08:34;;;;;;;;;;;;;;;19.33;44.75;101070.34;4917233;28;98175;-64
2021/10/25 14:11:00;;;;;;;;;;;;;;;19.24;45.09;101075.75;4920768;28;97912;-64
2021/10/25 14:16:07;;;;;;;;;;;;;;;19.05;45.27;101075.94;4919728;28;98771;-58
2021/10/25 14:18:34;;;;;;;;;;;;;;;18.94;45.61;101076.50;4912676;28;103784;-58
2021/10/25 14:21:00;;;;;;;;;;;;;;;18.84;45.58;101077.53;4920028;28;110856;-64
2021/10/25 14:23:26;;;;;;;;;;;;;;;18.76;45.93;101081.00;4909467;28;128210;-58
2021/10/25 14:25:52;;;;;;;;;;;;;;;18.68;46.00;101082.50;4918520;28;128172;-64
2021/10/25 14:28:18;;;;;;;;;;;;;;;18.60;46.09;101078.59;4896398;28;120781;-58
2021/10/25 14:30:44;;;;;;;;;;;;;;;18.51;46.15;101074.13;4918398;28;117429;-58
2021/10/25 14:33:10;;;;;;;;;;;;;;;18.43;46.41;101078.41;4920608;28;128050;-58
2021/10/25 14:35:37;;;;;;;;;;;;;;;18.36;46.39;101081.56;4919493;28;119590;-64
2021/10/25 14:38:06;;;;;;;;;;;;;;;18.29;46.49;101088.53;4915544;28;98095;-64
2021/10/25 14:40:46;;;;;;;;;;;;;;;18.21;46.56;101089.25;4928870;28;98093;-58
2021/10/25 14:43:16;;;;;;;;;;;;;;;18.13;46.72;101083.38;4920332;28;99127;-64
2021/10/25 14:45:48;;;;;;;;;;;;;;;18.05;46.94;101069.63;4928596;28;98413;-58
2021/10/25 14:48:20;;;;;;;;;;;;;;;17.96;46.99;101074.16;4906578;28;98608;-64
2021/10/25 14:53:37;;;;;;;;;;;;;;;17.79;46.86;101064.66;4917666;28;98315;-65